Time;durP1;ratioP1;P1;durP2;ratioP2;P2;SDS_P1;SDS_P2;PMS_P1;PMS_P2;Temp;Humidity;BMP_temperature;BMP_pressure;BME280_temperature;BME280_humidity;BME280_pressure;Samples;Min_cycle;Max_cycle;Signal;HPM_P1;HPM_P2
2022/09/25 00:00:48;;;;;;;18.10;10.47;;;14.20;99.90;;;;;;4995561;28;20415;-74
2022/09/25 00:03:15;;;;;;;19.37;10.77;;;14.20;99.90;;;;;;4995708;28;20439;-74
2022/09/25 00:05:44;;;;;;;17.30;11.03;;;14.20;99.90;;;;;;4995164;28;20424;-74
2022/09/25 00:08:10;;;;;;;17.53;9.73;;;14.30;99.90;;;;;;4995681;28;20416;-74
2022/09/25 00:10:44;;;;;;;19.27;12.90;;;14.30;99.90;;;;;;4995736;28;20420;-74
2022/09/25 00:13:10;;;;;;;14.13;9.10;;;14.20;99.90;;;;;;4995684;28;20431;-74
2022/09/25 00:15:37;;;;;;;23.77;11.17;;;14.20;99.90;;;;;;4995346;28;20462;-74
2022/09/25 00:18:03;;;;;;;16.83;10.83;;;14.20;99.90;;;;;;4995903;28;20511;-74
2022/09/25 00:20:29;;;;;;;15.10;10.70;;;14.20;99.90;;;;;;4995568;28;20459;-74
2022/09/25 00:22:55;;;;;;;18.13;11.63;;;14.20;99.90;;;;;;4995588;28;20396;-74
2022/09/25 00:25:21;;;;;;;16.80;10.60;;;14.20;99.90;;;;;;4995110;28;20462;-74
2022/09/25 00:27:49;;;;;;;17.00;11.70;;;14.30;99.90;;;;;;4995745;28;20408;-74
2022/09/25 00:30:14;;;;;;;16.13;10.90;;;14.20;99.90;;;;;;4995343;28;20199;-74
2022/09/25 00:32:40;;;;;;;15.30;11.60;;;14.30;99.90;;;;;;4993984;28;21001;-73
2022/09/25 00:35:06;;;;;;;16.93;10.23;;;14.30;99.90;;;;;;4994701;28;20169;-74
2022/09/25 00:37:33;;;;;;;16.57;10.70;;;14.30;99.90;;;;;;4994920;28;20208;-74
2022/09/25 00:39:59;;;;;;;18.20;11.37;;;14.30;99.90;;;;;;4995095;28;20397;-74
2022/09/25 00:42:24;;;;;;;17.93;9.93;;;14.30;99.90;;;;;;4995016;28;20453;-73
2022/09/25 00:45:00;;;;;;;17.17;12.07;;;14.30;99.90;;;;;;4994568;28;20179;-74
2022/09/25 00:47:31;;;;;;;17.47;11.60;;;14.30;99.90;;;;;;4994841;28;20169;-74
2022/09/25 00:49:58;;;;;;;19.33;11.97;;;14.30;99.90;;;;;;4994738;28;20427;-74
2022/09/25 00:52:25;;;;;;;17.37;10.80;;;14.30;99.90;;;;;;4994690;28;20483;-74
2022/09/25 00:54:57;;;;;;;17.80;10.80;;;14.30;99.90;;;;;;4994508;28;20404;-74
2022/09/25 00:57:25;;;;;;;18.60;10.90;;;14.30;99.90;;;;;;4994709;28;20454;-74
2022/09/25 00:59:55;;;;;;;16.70;11.50;;;14.30;99.90;;;;;;4994708;28;20432;-73
2022/09/25 01:02:27;;;;;;;15.30;10.70;;;14.40;99.90;;;;;;4994208;28;20415;-74
2022/09/25 01:04:58;;;;;;;12.90;9.63;;;14.40;99.90;;;;;;4994384;28;20405;-73
2022/09/25 01:07:24;;;;;;;15.30;10.13;;;14.40;99.90;;;;;;4993317;28;20427;-73
2022/09/25 01:09:49;;;;;;;16.43;10.30;;;14.40;99.90;;;;;;4994489;28;20404;-73
2022/09/25 01:12:15;;;;;;;18.43;12.40;;;14.40;99.90;;;;;;4994510;28;20203;-73
2022/09/25 01:14:41;;;;;;;20.57;11.83;;;14.40;99.90;;;;;;4994424;28;20244;-75
2022/09/25 01:17:28;;;;;;;16.80;10.87;;;14.40;99.90;;;;;;4992956;28;20494;-74
2022/09/25 01:20:15;;;;;;;13.23;9.77;;;14.40;99.90;;;;;;4994417;28;20404;-74
2022/09/25 01:22:59;;;;;;;25.17;11.80;;;14.40;99.90;;;;;;4994437;28;20503;-74
2022/09/25 01:25:33;;;;;;;14.70;10.40;;;14.50;99.90;;;;;;4994078;28;20854;-74
2022/09/25 01:28:19;;;;;;;13.87;8.73;;;14.50;99.90;;;;;;4994235;28;20419;-74
2022/09/25 01:30:49;;;;;;;12.53;8.50;;;14.50;99.90;;;;;;4994250;28;20819;-74
2022/09/25 01:33:26;;;;;;;16.93;9.40;;;14.50;99.90;;;;;;4993241;28;20813;-74
2022/09/25 01:35:55;;;;;;;17.27;8.77;;;14.50;99.90;;;;;;4993756;28;20451;-74
2022/09/25 01:38:37;;;;;;;17.27;8.40;;;14.50;99.90;;;;;;4994164;28;20442;-73
2022/09/25 01:41:34;;;;;;;11.03;7.43;;;14.50;99.90;;;;;;4994188;28;20403;-74
2022/09/25 01:44:18;;;;;;;10.63;7.00;;;14.50;99.90;;;;;;4994044;28;20916;-74
2022/09/25 01:46:50;;;;;;;13.47;8.57;;;14.50;99.90;;;;;;4993985;28;20423;-74
2022/09/25 01:49:23;;;;;;;11.37;8.30;;;14.50;99.90;;;;;;4992432;28;20415;-74
2022/09/25 01:51:54;;;;;;;12.47;7.27;;;14.50;99.90;;;;;;4993974;28;20480;-74
2022/09/25 01:54:21;;;;;;;12.70;7.47;;;14.50;99.90;;;;;;4993528;28;20459;-74
2022/09/25 01:56:53;;;;;;;10.90;7.80;;;14.40;99.90;;;;;;4993604;28;20420;-74
2022/09/25 01:59:44;;;;;;;12.20;7.67;;;14.50;99.90;;;;;;4993801;28;20466;-74
2022/09/25 02:02:13;;;;;;;9.17;7.17;;;14.50;99.90;;;;;;4992479;28;20897;-74
2022/09/25 02:04:45;;;;;;;11.70;7.30;;;14.50;99.90;;;;;;4993380;28;20749;-74
2022/09/25 02:07:17;;;;;;;9.57;7.60;;;14.50;99.90;;;;;;4993609;28;20805;-74
2022/09/25 02:09:51;;;;;;;14.03;7.77;;;14.40;99.90;;;;;;4993831;28;20410;-74
2022/09/25 02:12:25;;;;;;;11.60;7.80;;;14.40;99.90;;;;;;4992877;28;20815;-74
2022/09/25 02:15:19;;;;;;;11.37;7.33;;;14.40;99.90;;;;;;4993207;28;20395;-74
2022/09/25 02:20:49;;;;;;;11.33;7.27;;;14.40;99.90;;;;;;4993690;28;20392;-74
2022/09/25 02:23:32;;;;;;;11.37;8.10;;;14.40;99.90;;;;;;4992230;28;20426;-74
2022/09/25 02:25:58;;;;;;;9.07;6.10;;;14.40;99.90;;;;;;4991719;28;20494;-73
2022/09/25 02:28:24;;;;;;;10.33;6.73;;;14.40;99.90;;;;;;4993152;28;20436;-73
2022/09/25 02:30:53;;;;;;;7.93;6.40;;;14.40;99.90;;;;;;4992999;28;20180;-74
2022/09/25 02:33:18;;;;;;;10.07;6.03;;;14.40;99.90;;;;;;4993230;28;20405;-73
2022/09/25 02:35:44;;;;;;;13.93;4.90;;;14.40;99.90;;;;;;4991435;28;20432;-73
2022/09/25 02:38:10;;;;;;;6.70;4.27;;;14.30;99.90;;;;;;4992971;28;20177;-74
2022/09/25 02:40:45;;;;;;;8.57;4.93;;;14.40;99.90;;;;;;4992822;28;20573;-74
2022/09/25 02:43:37;;;;;;;5.60;3.93;;;14.40;99.90;;;;;;4993027;28;20234;-73
2022/09/25 02:46:14;;;;;;;5.73;3.93;;;14.30;99.90;;;;;;4992673;28;20422;-74
2022/09/25 02:48:52;;;;;;;6.93;4.03;;;14.30;99.90;;;;;;4992962;28;20401;-74
2022/09/25 02:51:31;;;;;;;4.70;3.70;;;14.30;99.90;;;;;;4992611;28;20457;-73
2022/09/25 02:54:29;;;;;;;8.53;3.50;;;14.40;99.90;;;;;;4992860;28;20400;-73
2022/09/25 02:57:23;;;;;;;8.00;3.60;;;14.30;99.90;;;;;;4988196;28;20436;-73
2022/09/25 02:59:54;;;;;;;5.70;2.63;;;14.30;99.90;;;;;;4992953;28;20407;-73
2022/09/25 03:02:21;;;;;;;6.17;2.90;;;14.30;99.90;;;;;;4993169;28;20404;-74
2022/09/25 03:04:48;;;;;;;5.27;2.67;;;14.20;99.90;;;;;;4992476;28;20397;-73
2022/09/25 03:07:16;;;;;;;4.70;3.43;;;14.20;99.90;;;;;;4992546;28;20826;-74
2022/09/25 03:09:45;;;;;;;6.83;2.43;;;14.20;99.90;;;;;;4992598;28;20440;-73
2022/09/25 03:12:11;;;;;;;4.70;3.30;;;14.20;99.90;;;;;;4991388;28;20455;-73
2022/09/25 03:14:37;;;;;;;5.37;2.50;;;14.20;99.90;;;;;;4991026;28;20894;-73
2022/09/25 03:17:04;;;;;;;5.10;3.33;;;14.10;99.90;;;;;;4993136;28;20428;-73
2022/09/25 03:19:30;;;;;;;3.80;2.60;;;14.20;99.90;;;;;;4992574;28;20532;-73
2022/09/25 03:21:56;;;;;;;2.77;2.10;;;14.20;99.90;;;;;;4992528;28;20817;-73
2022/09/25 03:24:22;;;;;;;2.60;2.30;;;14.20;99.90;;;;;;4994112;28;20463;-73
2022/09/25 03:26:47;;;;;;;6.57;2.20;;;14.20;99.90;;;;;;4996367;28;20217;-73
2022/09/25 03:29:16;;;;;;;2.70;2.10;;;14.20;99.90;;;;;;4996509;28;20454;-74
2022/09/25 03:31:42;;;;;;;10.40;2.40;;;14.20;99.90;;;;;;4996107;28;20187;-74
2022/09/25 03:34:09;;;;;;;3.50;2.07;;;14.10;99.90;;;;;;4994927;28;20447;-73
2022/09/25 03:36:35;;;;;;;4.57;2.83;;;14.10;99.90;;;;;;4995918;28;21008;-74
2022/09/25 03:39:01;;;;;;;2.30;2.10;;;14.10;99.90;;;;;;4996253;28;20528;-73
2022/09/25 03:41:29;;;;;;;4.10;3.00;;;14.10;99.90;;;;;;4996582;28;20172;-74
2022/09/25 03:43:56;;;;;;;3.67;3.13;;;14.10;99.90;;;;;;4996309;28;20499;-74
2022/09/25 03:46:24;;;;;;;4.87;3.90;;;14.10;99.90;;;;;;4995668;28;20860;-74
2022/09/25 03:48:51;;;;;;;5.97;4.47;;;14.10;99.90;;;;;;4994733;28;20412;-74
2022/09/25 03:51:18;;;;;;;4.03;3.43;;;14.10;99.90;;;;;;4995721;28;20460;-74
2022/09/25 03:53:44;;;;;;;7.03;4.23;;;14.10;99.90;;;;;;4994757;28;20403;-73
2022/09/25 03:56:12;;;;;;;5.10;4.10;;;14.10;99.90;;;;;;4996486;28;20459;-74
2022/09/25 03:58:38;;;;;;;7.37;3.10;;;14.00;99.90;;;;;;4995012;28;20408;-74
2022/09/25 04:01:05;;;;;;;4.20;3.73;;;14.00;99.90;;;;;;4995063;28;20462;-74
2022/09/25 04:03:33;;;;;;;5.10;3.57;;;14.00;99.90;;;;;;4996077;28;20415;-74
2022/09/25 04:06:01;;;;;;;5.73;3.20;;;14.00;99.90;;;;;;4995736;28;20473;-78
2022/09/25 04:08:27;;;;;;;6.73;4.57;;;14.00;99.90;;;;;;4995833;28;20912;-73
2022/09/25 04:10:55;;;;;;;6.20;3.60;;;13.90;99.90;;;;;;4995710;28;20506;-73
2022/09/25 04:13:21;;;;;;;6.40;4.07;;;13.90;99.90;;;;;;4995720;28;20411;-73
2022/09/25 04:15:47;;;;;;;6.67;3.80;;;13.90;99.90;;;;;;4995364;28;20511;-73
2022/09/25 04:18:13;;;;;;;13.03;3.37;;;13.90;99.90;;;;;;4995579;28;20491;-73
2022/09/25 04:20:39;;;;;;;4.40;2.70;;;13.90;99.90;;;;;;4995660;28;20401;-73
2022/09/25 04:23:04;;;;;;;6.57;4.00;;;13.90;99.90;;;;;;4995615;28;20165;-73
2022/09/25 04:25:30;;;;;;;5.60;3.00;;;13.90;99.90;;;;;;4995313;28;20239;-74
2022/09/25 04:27:57;;;;;;;2.93;2.20;;;13.80;99.90;;;;;;4995570;28;20203;-74
2022/09/25 04:30:24;;;;;;;4.50;1.70;;;13.80;99.90;;;;;;4995462;28;20264;-74
2022/09/25 04:35:34;;;;;;;4.57;2.73;;;13.70;99.90;;;;;;4994443;28;20423;-73
2022/09/25 04:38:00;;;;;;;7.20;2.40;;;13.70;99.90;;;;;;4995222;28;20404;-73
2022/09/25 04:40:26;;;;;;;2.27;1.87;;;13.70;99.90;;;;;;4994206;28;20195;-73
2022/09/25 04:42:59;;;;;;;11.37;1.80;;;13.60;99.90;;;;;;4995179;28;20195;-73
2022/09/25 04:45:26;;;;;;;4.13;2.17;;;13.60;99.90;;;;;;4994643;28;20436;-73
2022/09/25 04:47:53;;;;;;;3.00;1.57;;;13.70;99.90;;;;;;4995162;28;20420;-73
2022/09/25 04:50:19;;;;;;;6.43;2.37;;;13.70;99.90;;;;;;4993926;28;20427;-74
2022/09/25 04:52:44;;;;;;;3.47;2.20;;;13.60;99.90;;;;;;4995391;28;20539;-74
2022/09/25 04:55:10;;;;;;;3.67;1.77;;;13.60;99.90;;;;;;4995248;28;20949;-74
2022/09/25 04:57:36;;;;;;;5.53;1.97;;;13.60;99.90;;;;;;4995340;28;20165;-74
2022/09/25 05:00:02;;;;;;;9.87;1.90;;;13.60;99.90;;;;;;4994888;28;20165;-73
2022/09/25 05:02:28;;;;;;;5.20;1.40;;;13.60;99.90;;;;;;4997655;28;20176;-79
2022/09/25 05:04:53;;;;;;;1.70;1.30;;;13.60;99.90;;;;;;4994827;28;20893;-73
2022/09/25 05:07:19;;;;;;;8.13;1.73;;;13.60;99.90;;;;;;4994698;28;20196;-73
2022/09/25 05:09:44;;;;;;;1.93;1.73;;;13.50;99.90;;;;;;4994687;28;20180;-73
2022/09/25 05:12:10;;;;;;;4.73;3.00;;;13.60;99.90;;;;;;4994538;28;20197;-73
2022/09/25 05:14:39;;;;;;;4.67;1.70;;;13.60;99.90;;;;;;4992932;28;20255;-73
2022/09/25 05:17:05;;;;;;;5.80;1.80;;;13.50;99.90;;;;;;4994356;28;20603;-73
2022/09/25 05:19:31;;;;;;;2.13;1.30;;;13.60;99.90;;;;;;4994078;28;20400;-74
2022/09/25 05:21:56;;;;;;;1.70;1.23;;;13.50;99.90;;;;;;4993036;28;20408;-74
2022/09/25 05:24:22;;;;;;;3.00;1.60;;;13.50;99.90;;;;;;4994066;28;20227;-74
2022/09/25 05:26:47;;;;;;;2.30;1.60;;;13.40;99.90;;;;;;4994598;28;20690;-74
2022/09/25 05:29:13;;;;;;;6.10;2.20;;;13.40;99.90;;;;;;4994698;28;20205;-74
2022/09/25 05:31:41;;;;;;;5.77;1.80;;;13.40;99.90;;;;;;4994733;28;20195;-74
2022/09/25 05:34:08;;;;;;;6.13;2.00;;;13.40;99.90;;;;;;4994611;28;20161;-73
2022/09/25 05:36:33;;;;;;;5.80;1.53;;;13.30;99.90;;;;;;4993823;28;20420;-73
2022/09/25 05:38:59;;;;;;;1.87;1.60;;;13.30;99.90;;;;;;4994269;28;20830;-74
2022/09/25 05:41:25;;;;;;;4.30;1.57;;;13.30;99.90;;;;;;4994062;28;20173;-74
2022/09/25 05:43:50;;;;;;;2.03;1.50;;;13.20;99.90;;;;;;4994209;28;20176;-73
2022/09/25 05:46:16;;;;;;;5.37;2.40;;;13.20;99.90;;;;;;4993638;28;20188;-73
2022/09/25 05:48:42;;;;;;;3.63;1.77;;;13.20;99.90;;;;;;4994020;28;20634;-73
2022/09/25 05:51:09;;;;;;;2.33;1.93;;;13.10;99.90;;;;;;4993625;28;20191;-73
2022/09/25 05:53:35;;;;;;;4.73;2.20;;;13.20;99.90;;;;;;4993762;28;20487;-73
2022/09/25 05:56:02;;;;;;;2.73;1.93;;;13.10;99.90;;;;;;4992192;28;20432;-74
2022/09/25 05:58:29;;;;;;;7.60;2.13;;;13.10;99.90;;;;;;4994256;28;20408;-73
2022/09/25 06:00:59;;;;;;;3.20;1.80;;;13.10;99.90;;;;;;4992953;28;20412;-74
2022/09/25 06:03:27;;;;;;;7.40;2.10;;;13.00;99.90;;;;;;4994408;28;20408;-74
2022/09/25 06:05:55;;;;;;;2.30;1.40;;;12.90;99.90;;;;;;4992656;28;20791;-74
2022/09/25 06:08:20;;;;;;;9.03;1.80;;;12.90;99.90;;;;;;4993900;28;20419;-74
2022/09/25 06:10:52;;;;;;;2.70;2.27;;;12.80;99.90;;;;;;4993724;28;20408;-73
2022/09/25 06:13:18;;;;;;;2.43;1.87;;;12.80;99.90;;;;;;4993713;28;20177;-74
2022/09/25 06:15:43;;;;;;;2.60;1.70;;;12.70;99.90;;;;;;4993749;28;20511;-73
2022/09/25 06:18:09;;;;;;;3.40;1.80;;;12.70;99.90;;;;;;4993263;28;20662;-74
2022/09/25 06:20:34;;;;;;;3.20;1.80;;;12.60;99.90;;;;;;4993531;28;20169;-73
2022/09/25 06:23:01;;;;;;;2.50;1.47;;;12.60;99.90;;;;;;4992168;28;20177;-73
2022/09/25 06:25:29;;;;;;;4.70;1.87;;;12.60;99.90;;;;;;4992714;28;20682;-73
2022/09/25 06:27:56;;;;;;;4.17;2.70;;;12.60;99.90;;;;;;4992974;28;20420;-73
2022/09/25 06:30:26;;;;;;;4.00;2.07;;;12.60;99.90;;;;;;4993624;28;20426;-74
2022/09/25 06:32:59;;;;;;;8.47;2.03;;;12.50;99.90;;;;;;4993730;28;20455;-74
2022/09/25 06:35:26;;;;;;;4.30;2.90;;;12.50;99.90;;;;;;4992824;28;20416;-74
2022/09/25 06:37:55;;;;;;;13.97;2.90;;;12.50;99.90;;;;;;4993047;28;20762;-74
2022/09/25 06:40:21;;;;;;;4.30;2.23;;;12.50;99.90;;;;;;4991674;28;20419;-74
2022/09/25 06:42:46;;;;;;;9.37;2.50;;;12.50;99.90;;;;;;4993015;28;20400;-74
2022/09/25 06:45:12;;;;;;;5.23;2.87;;;12.50;99.90;;;;;;4992807;28;20221;-74
2022/09/25 06:47:37;;;;;;;3.40;2.40;;;12.50;99.90;;;;;;4992669;28;20179;-74
2022/09/25 06:50:03;;;;;;;4.20;2.63;;;12.60;99.90;;;;;;4993011;28;20191;-73
2022/09/25 06:52:28;;;;;;;7.63;2.17;;;12.60;99.90;;;;;;4992720;28;20212;-73
2022/09/25 06:54:54;;;;;;;16.57;4.70;;;12.70;99.90;;;;;;4992721;28;20179;-74
2022/09/25 06:57:19;;;;;;;3.33;2.00;;;12.80;99.90;;;;;;4992892;28;20185;-74
2022/09/25 06:59:45;;;;;;;6.57;2.43;;;12.90;99.90;;;;;;4992697;28;20694;-74
2022/09/25 07:04:54;;;;;;;5.43;1.70;;;13.30;99.90;;;;;;4993107;28;20191;-74
2022/09/25 07:07:21;;;;;;;8.03;1.77;;;13.60;99.90;;;;;;4993146;28;20468;-74
2022/09/25 07:09:47;;;;;;;3.73;1.83;;;13.90;99.90;;;;;;4993252;28;20187;-74
2022/09/25 07:12:13;;;;;;;3.33;1.60;;;14.20;99.90;;;;;;4993227;28;20546;-74
2022/09/25 07:14:41;;;;;;;3.00;1.60;;;14.60;99.90;;;;;;4991560;28;20169;-74
2022/09/25 07:17:07;;;;;;;2.87;1.50;;;14.90;99.90;;;;;;4992787;28;20420;-74
2022/09/25 07:19:33;;;;;;;2.70;1.40;;;15.20;99.90;;;;;;4992814;28;20408;-74
2022/09/25 07:21:58;;;;;;;2.13;1.70;;;15.50;99.90;;;;;;4992966;28;20256;-74
2022/09/25 07:24:25;;;;;;;5.13;1.77;;;15.80;99.90;;;;;;4992352;28;20175;-73
2022/09/25 07:26:51;;;;;;;6.17;2.40;;;16.00;99.90;;;;;;4992462;28;20189;-73
2022/09/25 07:29:18;;;;;;;3.77;1.67;;;16.20;99.90;;;;;;4992379;28;20411;-73
2022/09/25 07:31:43;;;;;;;6.13;1.83;;;16.40;99.90;;;;;;4992511;28;20502;-74
2022/09/25 07:34:11;;;;;;;8.77;1.53;;;16.50;99.90;;;;;;4992614;28;20988;-74
2022/09/25 07:36:38;;;;;;;8.17;1.90;;;16.80;99.90;;;;;;4992466;28;20642;-74
2022/09/25 07:39:05;;;;;;;2.43;1.40;;;17.00;99.90;;;;;;4992521;28;20408;-74
2022/09/25 07:41:31;;;;;;;8.13;3.10;;;17.30;99.90;;;;;;4992432;28;20901;-73
2022/09/25 07:43:57;;;;;;;15.10;6.80;;;17.40;99.90;;;;;;4991147;28;20499;-72
2022/09/25 07:46:27;;;;;;;17.43;7.47;;;17.60;99.90;;;;;;4992335;28;20804;-72
2022/09/25 07:48:53;;;;;;;5.43;1.87;;;17.90;99.90;;;;;;4992360;28;20420;-72
2022/09/25 07:51:22;;;;;;;4.30;1.30;;;17.90;99.90;;;;;;4992113;28;20502;-72
2022/09/25 07:53:48;;;;;;;4.80;1.10;;;17.90;99.90;;;;;;4992305;28;20432;-72
2022/09/25 07:56:14;;;;;;;10.33;2.67;;;18.10;99.90;;;;;;4992340;28;20420;-72
2022/09/25 07:58:40;;;;;;;1.53;1.13;;;18.20;99.90;;;;;;4992074;28;20404;-73
2022/09/25 08:01:08;;;;;;;2.77;1.83;;;18.30;99.90;;;;;;4992283;28;20500;-72
2022/09/25 08:03:34;;;;;;;17.23;1.70;;;18.40;99.90;;;;;;4992237;28;20165;-72
2022/09/25 08:06:10;;;;;;;5.40;1.40;;;18.30;99.90;;;;;;4991945;28;20423;-73
2022/09/25 08:08:36;;;;;;;5.03;1.47;;;18.50;99.90;;;;;;4992238;28;20161;-72
2022/09/25 08:11:05;;;;;;;7.63;1.53;;;18.50;99.90;;;;;;4993473;28;20495;-72
2022/09/25 08:13:32;;;;;;;2.07;1.50;;;18.70;99.90;;;;;;4995794;28;20396;-72
2022/09/25 08:15:58;;;;;;;5.97;2.30;;;19.20;99.90;;;;;;4995442;28;20419;-72
2022/09/25 08:18:23;;;;;;;4.07;1.50;;;19.90;99.90;;;;;;4995615;28;20772;-73
2022/09/25 08:20:49;;;;;;;4.53;2.03;;;21.50;99.90;;;;;;4994440;28;20491;-73
2022/09/25 08:23:15;;;;;;;6.30;3.30;;;22.60;99.90;;;;;;4995776;28;20199;-72
2022/09/25 08:25:40;;;;;;;3.63;1.90;;;23.10;99.90;;;;;;4994122;28;20543;-73
2022/09/25 08:28:06;;;;;;;3.93;2.53;;;22.60;99.90;;;;;;4995763;28;20193;-73
2022/09/25 08:30:31;;;;;;;3.33;2.20;;;22.00;99.90;;;;;;4995476;28;20181;-74
2022/09/25 08:32:57;;;;;;;4.03;1.90;;;21.80;99.90;;;;;;4995556;28;20200;-73
2022/09/25 08:35:22;;;;;;;1.80;1.33;;;22.50;99.90;;;;;;4995283;28;20185;-73
2022/09/25 08:37:48;;;;;;;9.00;2.20;;;22.50;99.90;;;;;;4995479;28;20688;-73
2022/09/25 08:40:25;;;;;;;3.30;1.77;;;23.30;99.90;;;;;;4995607;28;20172;-73
2022/09/25 08:42:52;;;;;;;7.57;1.57;;;24.70;97.80;;;;;;4995470;28;20248;-73
2022/09/25 08:51:26;;;;;;;4.13;1.80;;;28.90;60.50;;;;;;4995263;28;20525;-73
2022/09/25 08:53:52;;;;;;;5.53;1.83;;;30.40;54.50;;;;;;4995405;28;20494;-73
2022/09/25 08:56:18;;;;;;;3.63;1.87;;;30.70;52.70;;;;;;4993529;28;20527;-73
2022/09/25 08:58:50;;;;;;;3.90;1.97;;;31.60;49.10;;;;;;4995448;28;20161;-73
2022/09/25 09:01:26;;;;;;;6.27;2.10;;;32.40;47.70;;;;;;4995102;28;20303;-73
2022/09/25 09:04:07;;;;;;;2.30;1.53;;;33.00;45.60;;;;;;4994952;28;20877;-73
2022/09/25 09:06:33;;;;;;;3.40;1.90;;;31.80;44.50;;;;;;4993485;28;20432;-73
2022/09/25 09:09:06;;;;;;;2.80;1.90;;;30.50;44.80;;;;;;4994855;28;20436;-73
2022/09/25 09:11:37;;;;;;;4.50;1.80;;;29.50;47.50;;;;;;4994899;28;20814;-73
2022/09/25 09:14:14;;;;;;;3.93;1.60;;;29.40;48.20;;;;;;4993703;28;20416;-73
2022/09/25 09:16:58;;;;;;;4.70;1.60;;;30.20;48.10;;;;;;4994830;28;20463;-73
2022/09/25 09:19:23;;;;;;;5.37;1.60;;;30.10;46.00;;;;;;4994814;28;20404;-73
2022/09/25 09:22:04;;;;;;;4.80;2.20;;;29.60;46.70;;;;;;4994379;28;20403;-73
2022/09/25 09:25:02;;;;;;;6.03;1.53;;;30.40;47.30;;;;;;4994631;28;20259;-73
2022/09/25 09:27:33;;;;;;;2.37;1.80;;;32.00;45.60;;;;;;4994634;28;20415;-74
2022/09/25 09:30:32;;;;;;;8.17;1.87;;;32.10;43.10;;;;;;4994498;28;20775;-73
2022/09/25 09:33:17;;;;;;;5.30;3.00;;;32.30;42.60;;;;;;4994349;28;20499;-73
2022/09/25 09:36:25;;;;;;;2.43;1.50;;;33.50;41.50;;;;;;4992873;28;20940;-73
2022/09/25 09:39:22;;;;;;;3.37;1.90;;;35.30;39.20;;;;;;4994230;28;20399;-73
2022/09/25 09:42:12;;;;;;;3.10;1.53;;;37.20;36.70;;;;;;4994041;28;20400;-73
2022/09/25 09:45:08;;;;;;;3.10;1.77;;;38.10;35.30;;;;;;4993925;28;20395;-73
2022/09/25 09:47:39;;;;;;;2.23;1.47;;;37.00;33.90;;;;;;4994063;28;20392;-73
2022/09/25 09:50:10;;;;;;;2.70;1.60;;;35.80;34.50;;;;;;4993886;28;20915;-73
2022/09/25 09:52:40;;;;;;;4.03;1.67;;;35.70;35.60;;;;;;4993742;28;20455;-73
2022/09/25 09:55:20;;;;;;;2.83;1.60;;;35.40;34.00;;;;;;4993753;28;20447;-73
2022/09/25 09:57:52;;;;;;;4.60;1.60;;;34.50;34.50;;;;;;4994070;28;20865;-73
2022/09/25 10:00:21;;;;;;;3.10;1.53;;;34.30;35.80;;;;;;4993729;28;20798;-73
2022/09/25 10:03:07;;;;;;;2.60;1.47;;;35.10;35.00;;;;;;4993606;28;20463;-73
2022/09/25 10:05:45;;;;;;;2.90;1.57;;;36.00;34.00;;;;;;4989082;28;20467;-73
2022/09/25 10:08:11;;;;;;;2.03;1.43;;;37.20;32.50;;;;;;4993553;28;20443;-73
2022/09/25 10:10:40;;;;;;;1.80;1.70;;;38.10;31.80;;;;;;4993398;28;20416;-73
2022/09/25 10:13:19;;;;;;;4.17;2.37;;;39.20;31.60;;;;;;4993359;28;20434;-73
2022/09/25 10:15:51;;;;;;;4.13;2.13;;;38.80;30.90;;;;;;4993043;28;20395;-73
2022/09/25 10:18:18;;;;;;;3.50;2.00;;;37.50;30.80;;;;;;4992053;28;20408;-73
2022/09/25 10:21:04;;;;;;;1.90;1.60;;;36.10;30.90;;;;;;4993281;28;20439;-74
2022/09/25 10:23:38;;;;;;;2.70;1.40;;;34.30;33.20;;;;;;4993390;28;20491;-73
2022/09/25 10:26:29;;;;;;;2.63;1.73;;;34.90;34.20;;;;;;4993508;28;20420;-73
2022/09/25 10:29:00;;;;;;;2.60;1.60;;;34.90;33.20;;;;;;4993306;28;20878;-73
2022/09/25 10:31:29;;;;;;;5.57;2.37;;;33.30;33.90;;;;;;4993310;28;20526;-73
2022/09/25 10:34:16;;;;;;;3.20;1.93;;;31.80;35.50;;;;;;4991127;28;20929;-73
2022/09/25 10:36:47;;;;;;;2.80;1.70;;;30.90;36.90;;;;;;4993040;28;20428;-73
2022/09/25 10:39:35;;;;;;;3.10;1.53;;;29.90;38.50;;;;;;4992974;28;20408;-75
2022/09/25 10:42:06;;;;;;;2.97;2.67;;;30.80;39.10;;;;;;4992928;28;20407;-74
2022/09/25 10:44:34;;;;;;;1.27;1.17;;;32.60;37.70;;;;;;4991721;28;20404;-74
2022/09/25 10:50:18;;;;;;;8.50;5.10;;;36.60;32.50;;;;;;4992943;28;20431;-74
2022/09/25 10:52:57;;;;;;;5.13;2.93;;;36.20;31.50;;;;;;4992991;28;20501;-73
2022/09/25 10:55:29;;;;;;;3.53;1.67;;;35.10;32.10;;;;;;4992957;28;20820;-73
2022/09/25 10:58:10;;;;;;;4.90;2.10;;;33.10;33.00;;;;;;4992870;28;20764;-73
2022/09/25 11:00:40;;;;;;;2.10;1.47;;;31.70;35.60;;;;;;4992947;28;20435;-72
2022/09/25 11:03:13;;;;;;;2.63;1.60;;;31.80;36.20;;;;;;4991762;28;20829;-73
2022/09/25 11:05:54;;;;;;;3.40;1.30;;;31.80;36.00;;;;;;4992636;28;20459;-73
2022/09/25 11:08:23;;;;;;;1.93;1.00;;;31.40;35.90;;;;;;4992744;28;20491;-74
2022/09/25 11:10:52;;;;;;;2.10;1.40;;;31.40;35.60;;;;;;4992731;28;20419;-73
2022/09/25 11:13:49;;;;;;;2.20;1.53;;;31.00;35.40;;;;;;4992708;28;20865;-74
2022/09/25 11:16:14;;;;;;;2.90;1.40;;;30.40;35.60;;;;;;4992082;28;20446;-73
2022/09/25 11:18:45;;;;;;;2.67;1.77;;;30.60;36.70;;;;;;4992547;28;20490;-73
2022/09/25 11:21:18;;;;;;;2.90;1.83;;;30.70;37.60;;;;;;4992614;28;20173;-73
2022/09/25 11:24:19;;;;;;;3.00;1.77;;;30.50;37.40;;;;;;4992742;28;20401;-73
2022/09/25 11:26:56;;;;;;;3.27;2.27;;;29.30;37.90;;;;;;4970802;28;20448;-73
2022/09/25 11:29:32;;;;;;;2.27;1.30;;;28.50;39.30;;;;;;4990142;28;20408;-74
2022/09/25 11:32:09;;;;;;;6.67;2.07;;;27.70;40.20;;;;;;4992572;28;20443;-73
2022/09/25 11:34:41;;;;;;;3.10;1.73;;;27.60;41.90;;;;;;4992412;28;20400;-73
2022/09/25 11:37:21;;;;;;;3.97;2.90;;;28.20;42.40;;;;;;4992360;28;20416;-73
2022/09/25 11:42:45;;;;;;;1.77;1.30;;;29.70;39.00;;;;;;4992527;28;20447;-74
2022/09/25 11:45:29;;;;;;;3.10;1.50;;;29.90;38.80;;;;;;4992516;28;20416;-73
2022/09/25 11:48:20;;;;;;;1.57;1.47;;;30.20;38.20;;;;;;4996303;28;20782;-73
2022/09/25 11:51:17;;;;;;;3.60;2.30;;;30.00;37.10;;;;;;4995063;28;20941;-73
2022/09/25 11:53:46;;;;;;;2.50;1.73;;;30.60;37.80;;;;;;4996106;28;20415;-73
2022/09/25 11:56:49;;;;;;;2.60;2.27;;;30.30;37.00;;;;;;4996088;28;20815;-74
2022/09/25 11:59:38;;;;;;;4.40;2.13;;;30.10;37.10;;;;;;4985260;28;20407;-74
2022/09/25 12:02:55;;;;;;;5.10;1.90;;;29.50;37.30;;;;;;4994889;28;20524;-73
2022/09/25 12:05:50;;;;;;;3.13;2.17;;;28.60;39.10;;;;;;4973946;28;20437;-74
2022/09/25 12:08:25;;;;;;;3.00;1.83;;;27.80;40.70;;;;;;4974115;28;20457;-73
2022/09/25 12:11:06;;;;;;;2.13;1.83;;;28.20;41.90;;;;;;4992346;28;20415;-73
2022/09/25 12:13:44;;;;;;;2.50;1.20;;;29.80;41.20;;;;;;4995812;28;20678;-73
2022/09/25 12:16:22;;;;;;;1.93;1.07;;;31.90;39.00;;;;;;4994404;28;20953;-72
2022/09/25 12:19:16;;;;;;;2.20;1.53;;;33.80;37.50;;;;;;4994750;28;20416;-71
2022/09/25 12:22:04;;;;;;;9.03;1.83;;;35.50;35.20;;;;;;4995749;28;20397;-72
2022/09/25 12:25:03;;;;;;;1.60;1.30;;;37.20;32.80;;;;;;4995718;28;20732;-73
2022/09/25 12:28:00;;;;;;;3.23;1.40;;;38.80;31.80;;;;;;4988384;28;20906;-71
2022/09/25 12:31:04;;;;;;;2.83;1.80;;;40.10;30.10;;;;;;4995008;28;20390;-72
2022/09/25 12:33:49;;;;;;;2.17;1.53;;;40.40;28.40;;;;;;4994476;28;20473;-72
2022/09/25 12:36:34;;;;;;;1.60;1.30;;;39.50;27.80;;;;;;4995241;28;20405;-72
2022/09/25 12:39:25;;;;;;;4.73;1.20;;;37.90;28.70;;;;;;4995455;28;20429;-73
2022/09/25 12:42:36;;;;;;;2.87;1.20;;;35.60;29.50;;;;;;4992334;28;20393;-74
2022/09/25 12:45:16;;;;;;;1.30;1.13;;;33.30;30.90;;;;;;4973102;28;20421;-73
2022/09/25 12:47:54;;;;;;;2.27;1.37;;;31.40;33.20;;;;;;5008539;28;20443;-73
2022/09/25 12:50:27;;;;;;;2.13;1.03;;;29.90;35.20;;;;;;4994943;28;20913;-72
2022/09/25 12:53:27;;;;;;;2.17;1.20;;;29.80;38.00;;;;;;4994832;28;20542;-73
2022/09/25 12:56:01;;;;;;;2.83;1.00;;;31.30;36.90;;;;;;4992955;28;20466;-73
2022/09/25 12:58:38;;;;;;;1.50;1.10;;;33.20;34.80;;;;;;4993428;28;20431;-74
2022/09/25 13:01:13;;;;;;;1.63;1.10;;;35.10;34.00;;;;;;4994749;28;20463;-73
2022/09/25 13:04:05;;;;;;;2.00;1.40;;;36.60;31.40;;;;;;4993502;28;20423;-74
2022/09/25 13:06:38;;;;;;;1.10;1.00;;;37.90;30.00;;;;;;4994525;28;20486;-73
2022/09/25 13:09:34;;;;;;;1.23;1.00;;;39.10;29.10;;;;;;4994882;28;20888;-73
2022/09/25 13:12:03;;;;;;;1.47;1.30;;;40.10;28.70;;;;;;4994645;28;20458;-73
2022/09/25 13:15:09;;;;;;;1.30;1.00;;;40.50;28.00;;;;;;4994556;28;20838;-73
2022/09/25 13:17:35;;;;;;;1.13;0.93;;;41.20;27.90;;;;;;4972700;28;20508;-73
2022/09/25 13:20:26;;;;;;;2.90;1.20;;;41.30;27.10;;;;;;5001753;28;20470;-74
2022/09/25 13:23:02;;;;;;;1.73;1.63;;;41.50;26.40;;;;;;4994879;28;20506;-74
2022/09/25 13:25:29;;;;;;;1.40;1.27;;;41.60;25.90;;;;;;4994129;28;20972;-74
2022/09/25 13:28:04;;;;;;;1.80;1.33;;;41.70;27.10;;;;;;4994480;28;20398;-73
2022/09/25 13:30:30;;;;;;;1.80;1.13;;;42.10;26.40;;;;;;4994468;28;20483;-73